Time;durP1;ratioP1;P1;durP2;ratioP2;P2;SDS_P1;SDS_P2;PMS_P1;PMS_P2;Temp;Humidity;BMP_temperature;BMP_pressure;BME280_temperature;BME280_humidity;BME280_pressure;Samples;Min_cycle;Max_cycle;Signal;HPM_P1;HPM_P2
2022/02/24 00:00:35;;;;;;;19.27;8.55;;;4.70;76.10;;;;;;4990900;28;20045;-70
2022/02/24 00:03:03;;;;;;;19.65;7.95;;;4.50;76.30;;;;;;4990618;28;20634;-71
2022/02/24 00:05:30;;;;;;;22.20;7.88;;;4.70;75.50;;;;;;5005066;28;20052;-70
2022/02/24 00:07:59;;;;;;;20.17;7.43;;;4.60;75.90;;;;;;4992638;28;20046;-70
2022/02/24 00:10:26;;;;;;;13.60;5.78;;;4.60;75.80;;;;;;5008227;28;20030;-71
2022/02/24 00:12:53;;;;;;;14.52;5.43;;;4.40;76.10;;;;;;4990331;28;20180;-71
2022/02/24 00:15:20;;;;;;;18.50;6.80;;;4.30;76.80;;;;;;4989123;28;20037;-70
2022/02/24 00:17:47;;;;;;;17.63;6.10;;;4.30;76.80;;;;;;4991949;28;20077;-71
2022/02/24 00:20:14;;;;;;;13.18;5.60;;;4.40;76.20;;;;;;4973719;28;20845;-70
2022/02/24 00:22:41;;;;;;;16.48;6.85;;;4.40;76.10;;;;;;4990906;28;20046;-71
2022/02/24 00:25:09;;;;;;;14.30;5.35;;;4.10;76.90;;;;;;4988480;28;20541;-71
2022/02/24 00:27:37;;;;;;;14.50;6.18;;;4.20;77.20;;;;;;4992850;28;20034;-70
2022/02/24 00:30:08;;;;;;;11.93;5.97;;;4.10;77.10;;;;;;4993570;28;20085;-70
2022/02/24 00:32:36;;;;;;;16.75;5.68;;;3.90;77.60;;;;;;5005541;28;20769;-70
2022/02/24 00:35:04;;;;;;;15.05;6.25;;;3.70;79.10;;;;;;4990005;28;20104;-70
2022/02/24 00:37:32;;;;;;;17.00;7.50;;;3.70;79.10;;;;;;4990743;28;20564;-71
2022/02/24 00:39:59;;;;;;;17.80;6.53;;;3.70;79.30;;;;;;4989873;28;20050;-70
2022/02/24 00:42:26;;;;;;;22.02;6.53;;;3.90;78.70;;;;;;4990392;28;20506;-71
2022/02/24 00:44:53;;;;;;;22.48;7.43;;;4.00;78.10;;;;;;5006748;28;20068;-71
2022/02/24 00:47:21;;;;;;;17.58;7.85;;;3.90;78.50;;;;;;4975004;28;20052;-71
2022/02/24 00:49:49;;;;;;;16.77;7.60;;;4.00;77.80;;;;;;4987581;28;20046;-70
2022/02/24 00:52:16;;;;;;;16.80;6.38;;;3.90;77.70;;;;;;4992552;28;20137;-71
2022/02/24 00:54:47;;;;;;;21.58;7.50;;;3.70;78.60;;;;;;4987413;28;20759;-71
2022/02/24 00:57:16;;;;;;;18.70;7.45;;;3.80;77.80;;;;;;4991569;28;20525;-71
2022/02/24 00:59:43;;;;;;;17.45;7.15;;;3.60;78.40;;;;;;4987923;28;20694;-70
2022/02/24 01:02:11;;;;;;;19.58;7.57;;;3.60;78.40;;;;;;4990239;28;20409;-70
2022/02/24 01:04:38;;;;;;;22.05;7.93;;;3.40;79.70;;;;;;4989968;28;20048;-71
2022/02/24 01:07:05;;;;;;;20.17;7.95;;;3.40;79.10;;;;;;4991361;28;20434;-71
2022/02/24 01:09:32;;;;;;;28.63;9.07;;;3.50;79.30;;;;;;5007974;28;20049;-70
2022/02/24 01:11:59;;;;;;;24.00;8.65;;;3.40;79.00;;;;;;4992797;28;20047;-70
2022/02/24 01:14:27;;;;;;;22.70;7.90;;;3.30;79.30;;;;;;4991497;28;20064;-71
2022/02/24 01:16:54;;;;;;;20.70;7.75;;;3.40;79.20;;;;;;5003431;28;20148;-70
2022/02/24 01:19:21;;;;;;;14.80;6.13;;;3.50;78.90;;;;;;4989615;28;20038;-71
2022/02/24 01:21:48;;;;;;;18.65;7.72;;;3.20;79.70;;;;;;4991949;28;20049;-70
2022/02/24 01:24:15;;;;;;;20.30;7.90;;;3.00;80.60;;;;;;4991236;28;20123;-70
2022/02/24 01:26:42;;;;;;;21.27;7.53;;;3.00;81.70;;;;;;4990014;28;20046;-71
2022/02/24 01:29:09;;;;;;;16.92;6.68;;;3.00;81.70;;;;;;5005465;28;20147;-71
2022/02/24 01:31:37;;;;;;;14.98;6.68;;;3.20;80.90;;;;;;4994553;28;20044;-71
2022/02/24 01:34:04;;;;;;;20.67;7.80;;;3.40;80.10;;;;;;4986578;28;20732;-70
2022/02/24 01:36:31;;;;;;;15.00;6.60;;;3.30;79.70;;;;;;4991385;28;20067;-70
2022/02/24 01:38:58;;;;;;;23.33;9.00;;;3.40;79.00;;;;;;4975228;28;20057;-71
2022/02/24 01:41:26;;;;;;;21.02;7.47;;;3.40;79.00;;;;;;4989809;28;20045;-70
2022/02/24 01:43:53;;;;;;;19.05;7.68;;;3.30;79.40;;;;;;4991895;28;20711;-71
2022/02/24 01:46:20;;;;;;;17.13;7.78;;;3.20;79.60;;;;;;4990444;28;20128;-71
2022/02/24 01:48:47;;;;;;;16.63;7.57;;;3.20;79.90;;;;;;4989995;28;20221;-70
2022/02/24 01:51:14;;;;;;;20.08;7.20;;;3.30;79.60;;;;;;4989194;28;20096;-70
2022/02/24 01:53:41;;;;;;;18.25;6.90;;;3.40;78.50;;;;;;4988767;28;20045;-70
2022/02/24 01:56:08;;;;;;;21.33;7.97;;;3.10;79.30;;;;;;4992268;28;20097;-70
2022/02/24 01:58:35;;;;;;;17.98;7.63;;;3.20;79.70;;;;;;4990143;28;20045;-71
2022/02/24 02:01:02;;;;;;;24.17;7.55;;;3.10;79.90;;;;;;4990341;28;20085;-70
2022/02/24 02:03:31;;;;;;;18.00;7.93;;;3.00;79.80;;;;;;4987271;28;20079;-70
2022/02/24 02:06:00;;;;;;;18.27;7.47;;;3.00;79.80;;;;;;4989899;28;20048;-71
2022/02/24 02:08:28;;;;;;;18.50;7.55;;;3.10;79.30;;;;;;4996643;28;20133;-71
2022/02/24 02:10:55;;;;;;;26.02;8.48;;;3.00;79.80;;;;;;4994176;28;20050;-70
2022/02/24 02:13:22;;;;;;;21.00;8.38;;;3.00;79.80;;;;;;4994459;28;20057;-70
2022/02/24 02:15:54;;;;;;;23.75;9.52;;;3.10;80.00;;;;;;4994803;28;20053;-70
2022/02/24 02:18:21;;;;;;;24.95;9.07;;;3.10;80.30;;;;;;4995452;28;20932;-70
2022/02/24 02:20:48;;;;;;;23.85;9.27;;;3.30;79.20;;;;;;4993938;28;20042;-70
2022/02/24 02:23:15;;;;;;;20.45;9.15;;;3.20;78.80;;;;;;4992038;28;20951;-70
2022/02/24 02:25:42;;;;;;;27.48;11.05;;;2.80;79.50;;;;;;4990504;28;20149;-70
2022/02/24 02:28:16;;;;;;;24.73;10.18;;;2.70;80.70;;;;;;4996982;28;20078;-71
2022/02/24 02:30:44;;;;;;;28.02;10.82;;;2.70;80.90;;;;;;4994582;28;20038;-71
2022/02/24 02:33:11;;;;;;;24.15;9.88;;;2.60;80.70;;;;;;4992692;28;20501;-70
2022/02/24 02:35:39;;;;;;;26.77;10.52;;;2.70;80.90;;;;;;4992867;28;20041;-70
2022/02/24 02:38:06;;;;;;;21.73;8.60;;;2.80;80.40;;;;;;4993784;28;20050;-70
2022/02/24 02:40:38;;;;;;;28.95;9.90;;;3.00;79.70;;;;;;4993078;28;20049;-70
2022/02/24 02:43:06;;;;;;;30.08;9.98;;;3.10;79.00;;;;;;4992429;28;20088;-70
2022/02/24 02:45:33;;;;;;;23.77;8.82;;;2.90;79.00;;;;;;4993085;28;20097;-70
2022/02/24 02:48:01;;;;;;;26.85;9.20;;;2.80;79.50;;;;;;4992934;28;20657;-70
2022/02/24 02:50:29;;;;;;;25.35;10.13;;;2.80;79.90;;;;;;4992801;28;20041;-70
2022/02/24 02:52:56;;;;;;;30.88;10.95;;;2.90;79.50;;;;;;4974917;28;20108;-70
2022/02/24 02:55:23;;;;;;;31.42;11.48;;;2.60;79.40;;;;;;4996156;28;20042;-70
2022/02/24 02:57:50;;;;;;;28.00;9.68;;;2.40;81.10;;;;;;4992229;28;20065;-70
2022/02/24 03:00:18;;;;;;;32.88;10.80;;;2.50;80.90;;;;;;4992158;28;20046;-70
2022/02/24 03:02:46;;;;;;;30.55;10.82;;;2.70;79.90;;;;;;4993510;28;20046;-70
2022/02/24 03:05:14;;;;;;;30.02;10.65;;;2.60;80.10;;;;;;4995142;28;20092;-70
2022/02/24 03:07:41;;;;;;;31.92;10.38;;;2.40;80.40;;;;;;4990882;28;20581;-70
2022/02/24 03:10:08;;;;;;;29.83;11.10;;;2.10;81.60;;;;;;4994696;28;20493;-70
2022/02/24 03:12:36;;;;;;;28.48;9.95;;;2.00;82.70;;;;;;4993307;28;20132;-71
2022/02/24 03:15:08;;;;;;;33.42;10.50;;;1.90;83.30;;;;;;4993770;28;20069;-70
2022/02/24 03:17:36;;;;;;;26.95;10.02;;;1.60;84.20;;;;;;4994652;28;20046;-70
2022/02/24 03:20:04;;;;;;;34.70;10.68;;;1.70;84.90;;;;;;4994639;28;20046;-70
2022/02/24 03:22:31;;;;;;;25.65;9.32;;;1.90;84.30;;;;;;5006740;28;20057;-70
2022/02/24 03:24:58;;;;;;;28.90;9.90;;;2.10;83.20;;;;;;4991803;28;20073;-70
2022/02/24 03:27:25;;;;;;;27.92;10.00;;;2.30;82.20;;;;;;4991548;28;20061;-70
2022/02/24 03:29:53;;;;;;;29.35;10.25;;;2.40;81.70;;;;;;5007512;28;20041;-70
2022/02/24 03:32:21;;;;;;;26.63;9.50;;;2.60;80.30;;;;;;4992547;28;20129;-70
2022/02/24 03:34:48;;;;;;;29.10;9.48;;;2.60;79.50;;;;;;4991002;28;20061;-70
2022/02/24 03:37:16;;;;;;;27.15;8.80;;;2.60;79.70;;;;;;4990627;28;20045;-70
2022/02/24 03:39:44;;;;;;;23.13;8.90;;;2.40;80.50;;;;;;4991076;28;20128;-70
2022/02/24 03:42:11;;;;;;;28.67;8.52;;;2.30;80.60;;;;;;5007486;28;20050;-70
2022/02/24 03:44:38;;;;;;;19.23;8.07;;;2.20;80.90;;;;;;4992381;28;20465;-70
2022/02/24 03:47:06;;;;;;;26.35;8.27;;;2.00;82.00;;;;;;4994977;28;20041;-70
2022/02/24 03:49:44;;;;;;;22.30;8.45;;;2.00;82.30;;;;;;5006849;28;20042;-70
2022/02/24 03:52:11;;;;;;;20.08;7.55;;;2.00;81.00;;;;;;4992761;28;20531;-70
2022/02/24 03:54:38;;;;;;;25.20;9.10;;;2.10;81.20;;;;;;4989902;28;20104;-70
2022/02/24 03:57:05;;;;;;;21.75;7.78;;;2.10;81.30;;;;;;4979687;28;20050;-70
2022/02/24 03:59:32;;;;;;;22.60;7.82;;;2.20;81.00;;;;;;5006144;28;20049;-71
2022/02/24 04:02:05;;;;;;;21.63;8.57;;;2.30;80.50;;;;;;4995730;28;20077;-71
2022/02/24 04:04:33;;;;;;;22.05;8.25;;;2.30;79.30;;;;;;4989845;28;20837;-71
2022/02/24 04:07:01;;;;;;;22.95;8.07;;;2.20;79.70;;;;;;4990998;28;20049;-70
2022/02/24 04:09:28;;;;;;;16.25;7.55;;;2.10;80.50;;;;;;4991381;28;20117;-70
2022/02/24 04:11:55;;;;;;;17.67;8.07;;;2.00;80.60;;;;;;5004497;28;20049;-71
2022/02/24 04:14:23;;;;;;;18.75;7.80;;;2.10;80.40;;;;;;4975719;28;20160;-71
2022/02/24 04:16:51;;;;;;;17.20;7.80;;;2.30;79.60;;;;;;4992876;28;20038;-70
2022/02/24 04:19:18;;;;;;;24.92;9.15;;;2.30;79.50;;;;;;4993219;28;20057;-70
2022/02/24 04:21:45;;;;;;;16.92;7.28;;;2.00;79.80;;;;;;5007284;28;20153;-70
2022/02/24 04:24:12;;;;;;;21.58;7.97;;;2.10;80.10;;;;;;4991858;28;20050;-70
2022/02/24 04:26:39;;;;;;;28.15;8.35;;;1.90;79.90;;;;;;4990286;28;20526;-71
2022/02/24 04:29:09;;;;;;;20.70;8.93;;;1.70;81.20;;;;;;4989548;28;20123;-70
2022/02/24 04:31:36;;;;;;;23.60;8.23;;;1.70;82.00;;;;;;4992818;28;20034;-71
2022/02/24 04:34:03;;;;;;;19.23;8.20;;;1.90;81.10;;;;;;4989548;28;20038;-71
2022/02/24 04:36:30;;;;;;;20.63;9.57;;;1.80;80.80;;;;;;4988768;28;20528;-70
2022/02/24 04:38:58;;;;;;;22.42;8.20;;;1.80;80.40;;;;;;4994100;28;20060;-70
2022/02/24 04:41:25;;;;;;;22.40;7.97;;;1.70;80.80;;;;;;4986140;28;20057;-70
2022/02/24 04:43:52;;;;;;;20.85;7.95;;;1.60;81.40;;;;;;4989141;28;20053;-71
2022/02/24 04:46:19;;;;;;;22.27;8.80;;;1.60;81.20;;;;;;5008773;28;20149;-70
2022/02/24 04:48:46;;;;;;;19.33;9.13;;;1.30;81.80;;;;;;4992765;28;20114;-70
2022/02/24 04:51:15;;;;;;;24.95;8.52;;;1.50;82.20;;;;;;4991427;28;20164;-70
2022/02/24 04:53:42;;;;;;;22.45;8.80;;;1.50;82.10;;;;;;4991521;28;20362;-70
2022/02/24 04:56:09;;;;;;;31.13;10.18;;;1.70;81.00;;;;;;4990254;28;21012;-70
2022/02/24 04:58:36;;;;;;;23.35;9.65;;;1.70;80.60;;;;;;4988851;28;20129;-71
2022/02/24 05:01:03;;;;;;;22.35;9.07;;;1.80;79.80;;;;;;4991224;28;21334;-71
2022/02/24 05:03:31;;;;;;;26.98;11.32;;;1.70;79.00;;;;;;4989795;28;20060;-71
2022/02/24 05:05:58;;;;;;;26.38;10.07;;;1.70;80.50;;;;;;5007221;28;20092;-70
2022/02/24 05:08:25;;;;;;;24.35;9.93;;;1.50;80.90;;;;;;4992298;28;20035;-71
2022/02/24 05:10:54;;;;;;;26.00;11.35;;;1.70;80.30;;;;;;5005305;28;20386;-70
2022/02/24 05:13:21;;;;;;;30.77;12.15;;;1.30;81.60;;;;;;5002628;28;20053;-71
2022/02/24 05:15:49;;;;;;;37.45;12.02;;;1.30;81.70;;;;;;4989180;28;20126;-70
2022/02/24 05:18:16;;;;;;;30.92;12.38;;;1.40;82.30;;;;;;4998135;28;20045;-70
2022/02/24 05:20:43;;;;;;;26.08;10.45;;;1.50;81.80;;;;;;4991717;28;20527;-70
2022/02/24 05:23:10;;;;;;;29.67;11.05;;;1.40;82.00;;;;;;4989571;28;20057;-71
2022/02/24 05:25:38;;;;;;;21.42;10.07;;;1.50;80.80;;;;;;4992491;28;20054;-70
2022/02/24 05:28:10;;;;;;;26.55;9.50;;;1.40;80.70;;;;;;4991383;28;20050;-70
2022/02/24 05:30:38;;;;;;;28.30;10.98;;;1.40;81.50;;;;;;5003995;28;20038;-70
2022/02/24 05:33:09;;;;;;;29.88;10.20;;;1.40;81.50;;;;;;4991067;28;20458;-70
2022/02/24 05:35:37;;;;;;;29.80;10.90;;;1.20;82.20;;;;;;4992370;28;20756;-70
2022/02/24 05:38:04;;;;;;;31.83;10.38;;;1.30;82.30;;;;;;5005125;28;20049;-70
2022/02/24 05:40:31;;;;;;;30.23;10.70;;;1.50;81.50;;;;;;5006799;28;20052;-70
2022/02/24 05:42:58;;;;;;;35.83;11.73;;;1.60;80.50;;;;;;4996603;28;20050;-70
2022/02/24 05:45:26;;;;;;;27.70;9.38;;;1.70;79.80;;;;;;4993427;28;20034;-70
2022/02/24 05:47:53;;;;;;;22.33;10.77;;;1.50;79.60;;;;;;4993244;28;20038;-71
2022/02/24 05:50:20;;;;;;;37.08;11.32;;;1.60;79.30;;;;;;4976805;28;20052;-70
2022/02/24 05:52:48;;;;;;;38.00;11.77;;;1.20;80.00;;;;;;4995753;28;20448;-70
2022/02/24 05:55:15;;;;;;;26.63;12.40;;;1.30;82.00;;;;;;4995109;28;20046;-70
2022/02/24 05:57:43;;;;;;;29.70;11.18;;;1.10;82.30;;;;;;4997144;28;20088;-70
2022/02/24 06:00:12;;;;;;;29.25;11.57;;;1.10;82.50;;;;;;4993369;28;20042;-70
2022/02/24 06:02:57;;;;;;;27.48;11.85;;;1.40;81.70;;;;;;4977883;28;20071;-70
2022/02/24 06:05:24;;;;;;;36.58;12.75;;;1.50;80.80;;;;;;4993303;28;20053;-70
2022/02/24 06:07:52;;;;;;;37.10;13.48;;;1.60;80.60;;;;;;5006981;28;20043;-70
2022/02/24 06:10:19;;;;;;;38.53;14.13;;;1.60;80.60;;;;;;4995347;28;20188;-70
2022/02/24 06:12:46;;;;;;;36.75;14.88;;;1.60;80.80;;;;;;5009531;28;20050;-71
2022/02/24 06:15:14;;;;;;;34.42;13.82;;;1.60;81.00;;;;;;4978214;28;20096;-70
2022/02/24 06:17:41;;;;;;;41.28;15.38;;;1.70;81.20;;;;;;4993290;28;20042;-70
2022/02/24 06:20:08;;;;;;;43.58;17.63;;;1.50;82.20;;;;;;4993318;28;20050;-71
2022/02/24 06:22:35;;;;;;;51.80;18.73;;;1.50;83.50;;;;;;4992783;28;20138;-70
2022/02/24 06:25:03;;;;;;;48.67;19.23;;;1.70;83.30;;;;;;4991778;28;20053;-70
2022/02/24 06:27:30;;;;;;;45.67;17.58;;;1.70;83.00;;;;;;4993721;28;20490;-70
2022/02/24 06:29:58;;;;;;;50.05;18.92;;;1.80;83.00;;;;;;4994481;28;20125;-70
2022/02/24 06:32:25;;;;;;;42.35;16.10;;;2.00;82.50;;;;;;5011438;28;20038;-71
2022/02/24 06:34:54;;;;;;;41.72;15.25;;;2.00;82.50;;;;;;5007769;28;20136;-71
2022/02/24 06:37:21;;;;;;;33.03;14.57;;;2.00;83.20;;;;;;4990190;28;20058;-70
2022/02/24 06:39:49;;;;;;;36.28;15.45;;;2.10;83.10;;;;;;4994190;28;20069;-71
2022/02/24 06:42:16;;;;;;;35.28;14.40;;;2.10;83.20;;;;;;4991628;28;20046;-71
2022/02/24 06:44:43;;;;;;;37.30;14.63;;;2.20;83.90;;;;;;4992849;28;20116;-70
2022/02/24 06:47:10;;;;;;;37.38;15.40;;;2.30;83.20;;;;;;4996068;28;20038;-70
2022/02/24 06:49:41;;;;;;;46.63;17.85;;;2.30;83.80;;;;;;4993805;28;20141;-70
2022/02/24 06:52:08;;;;;;;51.05;18.60;;;2.30;84.30;;;;;;4993043;28;20049;-71
2022/02/24 06:54:35;;;;;;;48.80;19.10;;;2.30;84.30;;;;;;4990948;28;20121;-70
2022/02/24 06:57:06;;;;;;;49.83;21.20;;;2.40;84.30;;;;;;4993015;28;20514;-70
2022/02/24 06:59:34;;;;;;;45.65;19.73;;;2.50;84.10;;;;;;4993304;28;20468;-71
2022/02/24 07:02:08;;;;;;;53.28;20.15;;;2.60;84.30;;;;;;4989419;28;20129;-71
2022/02/24 07:04:35;;;;;;;59.85;19.70;;;2.70;84.10;;;;;;4996910;28;20041;-70
2022/02/24 07:07:04;;;;;;;49.17;19.17;;;2.80;84.10;;;;;;4992943;28;20077;-71
2022/02/24 07:09:31;;;;;;;42.67;17.10;;;3.00;83.80;;;;;;4976109;28;20049;-71
2022/02/24 07:11:59;;;;;;;42.75;16.90;;;3.10;83.40;;;;;;4994037;28;20042;-70
2022/02/24 07:14:26;;;;;;;49.92;18.60;;;3.30;83.20;;;;;;4994300;28;20050;-71
2022/02/24 07:16:53;;;;;;;40.80;16.02;;;3.30;82.80;;;;;;4994790;28;20057;-70
2022/02/24 07:19:20;;;;;;;35.80;13.27;;;3.50;82.90;;;;;;4991184;28;20042;-70
2022/02/24 07:21:47;;;;;;;29.63;12.93;;;3.50;83.10;;;;;;5008585;28;20085;-71
2022/02/24 07:24:14;;;;;;;28.73;12.95;;;3.70;83.00;;;;;;4991978;28;20456;-70
2022/02/24 07:26:41;;;;;;;31.48;12.65;;;4.00;82.20;;;;;;4974292;28;20121;-71
2022/02/24 07:29:09;;;;;;;34.95;14.25;;;4.20;82.00;;;;;;4990098;28;20072;-70
2022/02/24 07:31:36;;;;;;;27.73;11.73;;;4.30;82.00;;;;;;4991981;28;20113;-71
2022/02/24 07:34:04;;;;;;;26.08;11.20;;;4.30;82.40;;;;;;4987438;28;21122;-71
2022/02/24 07:36:33;;;;;;;22.77;9.95;;;4.50;82.00;;;;;;4989005;28;20561;-71
2022/02/24 07:39:00;;;;;;;25.58;9.77;;;4.70;82.10;;;;;;4969894;28;20478;-71
2022/02/24 07:41:27;;;;;;;27.73;11.43;;;4.70;81.90;;;;;;4986444;28;20069;-71
2022/02/24 07:43:54;;;;;;;28.83;11.23;;;4.90;81.70;;;;;;4990942;28;20030;-71
2022/02/24 07:46:21;;;;;;;25.42;10.27;;;5.00;81.50;;;;;;4989151;28;20041;-70
2022/02/24 07:48:50;;;;;;;26.45;10.63;;;5.10;81.00;;;;;;4989297;28;20045;-71
2022/02/24 07:51:17;;;;;;;23.40;10.38;;;5.20;80.50;;;;;;4990310;28;20733;-71
2022/02/24 07:53:44;;;;;;;24.65;10.82;;;5.40;80.10;;;;;;5006742;28;20119;-71
2022/02/24 07:56:11;;;;;;;22.55;9.90;;;5.50;79.60;;;;;;4990586;28;20050;-71
2022/02/24 07:58:38;;;;;;;26.67;9.90;;;5.70;78.60;;;;;;4991565;28;20050;-71
2022/02/24 08:01:05;;;;;;;17.13;8.77;;;5.80;78.60;;;;;;4988364;28;20708;-71
2022/02/24 08:03:33;;;;;;;22.00;10.05;;;5.80;78.30;;;;;;4991274;28;20619;-71
2022/02/24 08:06:00;;;;;;;21.42;9.77;;;6.00;78.20;;;;;;4987093;28;20056;-71
2022/02/24 08:08:27;;;;;;;21.33;8.93;;;6.10;78.70;;;;;;4990236;28;20600;-72
2022/02/24 08:10:54;;;;;;;28.17;9.88;;;6.10;77.50;;;;;;4991250;28;20137;-71
2022/02/24 08:13:22;;;;;;;20.98;9.85;;;6.30;78.50;;;;;;4988779;28;20046;-72
2022/02/24 08:15:49;;;;;;;16.55;7.45;;;6.50;78.10;;;;;;4992349;28;20093;-71
2022/02/24 08:18:16;;;;;;;15.05;6.57;;;6.60;75.70;;;;;;4990874;28;20042;-71
2022/02/24 08:20:43;;;;;;;14.52;6.70;;;6.70;76.50;;;;;;4972494;28;20132;-71
2022/02/24 08:23:10;;;;;;;14.30;6.25;;;6.90;76.10;;;;;;4970291;28;20963;-71
2022/02/24 08:25:38;;;;;;;14.15;5.63;;;7.00;73.10;;;;;;4991676;28;20081;-71
2022/02/24 08:28:05;;;;;;;10.57;5.07;;;7.20;72.70;;;;;;4994250;28;20132;-71
2022/02/24 08:30:32;;;;;;;11.85;5.25;;;7.40;71.70;;;;;;4993918;28;20097;-71
2022/02/24 08:33:00;;;;;;;10.85;4.93;;;7.60;71.60;;;;;;4989255;28;20128;-72
2022/02/24 08:35:27;;;;;;;13.30;5.03;;;7.70;71.60;;;;;;4990343;28;20046;-71
2022/02/24 08:37:55;;;;;;;10.93;5.03;;;7.80;69.40;;;;;;4992524;28;20046;-71
2022/02/24 08:40:22;;;;;;;8.02;3.78;;;8.00;69.10;;;;;;4993962;28;20064;-71
2022/02/24 08:42:50;;;;;;;12.32;3.53;;;8.20;68.30;;;;;;4992775;28;20124;-71
2022/02/24 08:45:19;;;;;;;8.00;3.03;;;8.40;66.50;;;;;;4994833;28;20541;-71
2022/02/24 08:47:46;;;;;;;8.32;3.35;;;8.50;66.20;;;;;;4994286;28;20132;-71
2022/02/24 08:50:14;;;;;;;9.57;3.20;;;8.70;65.60;;;;;;4991814;28;20046;-71
2022/02/24 08:53:02;;;;;;;16.38;3.78;;;8.80;66.00;;;;;;4986335;28;20060;-72
2022/02/24 08:55:31;;;;;;;10.23;2.90;;;8.90;65.40;;;;;;4988394;28;20116;-71
2022/02/24 08:57:58;;;;;;;5.13;2.55;;;9.10;64.50;;;;;;5004834;28;21453;-71
2022/02/24 09:00:28;;;;;;;6.60;3.08;;;9.20;63.50;;;;;;5005013;28;20452;-71
2022/02/24 09:02:55;;;;;;;8.95;3.10;;;9.30;63.30;;;;;;4989885;28;20038;-71
2022/02/24 09:05:23;;;;;;;5.55;2.90;;;9.40;64.20;;;;;;4988821;28;20038;-72
2022/02/24 09:07:50;;;;;;;6.18;2.63;;;9.50;63.00;;;;;;4988277;28;20073;-72
2022/02/24 09:10:37;;;;;;;6.20;1.90;;;9.80;62.70;;;;;;4969514;28;20062;-71
2022/02/24 09:13:04;;;;;;;4.47;1.70;;;10.00;59.70;;;;;;4994828;28;20047;-72
2022/02/24 09:15:36;;;;;;;5.80;1.85;;;10.20;58.90;;;;;;4992073;28;20049;-72
2022/02/24 09:18:05;;;;;;;3.22;1.27;;;10.20;58.80;;;;;;4997770;28;20056;-71
2022/02/24 09:20:32;;;;;;;6.20;1.50;;;10.30;57.60;;;;;;4997982;28;20042;-71
2022/02/24 09:22:59;;;;;;;5.20;2.05;;;10.20;57.60;;;;;;4995742;28;20509;-71
2022/02/24 09:25:27;;;;;;;3.63;1.70;;;10.40;58.10;;;;;;5009681;28;20619;-71
2022/02/24 09:27:55;;;;;;;2.58;1.00;;;10.50;57.00;;;;;;5008663;28;20049;-71
2022/02/24 09:30:22;;;;;;;3.75;1.50;;;10.60;57.60;;;;;;4996416;28;20069;-72
2022/02/24 09:32:55;;;;;;;4.60;1.60;;;10.80;56.70;;;;;;4995464;28;20065;-71
2022/02/24 09:35:23;;;;;;;4.75;1.65;;;10.80;56.90;;;;;;4995611;28;20136;-71
2022/02/24 09:37:50;;;;;;;5.70;2.38;;;11.00;56.60;;;;;;4977067;28;20082;-71
2022/02/24 09:40:18;;;;;;;6.60;1.98;;;11.10;56.40;;;;;;4992720;28;20528;-71
2022/02/24 09:43:06;;;;;;;3.83;1.67;;;11.00;55.10;;;;;;4989777;28;20058;-71
2022/02/24 09:45:33;;;;;;;7.97;2.15;;;10.80;55.40;;;;;;4990038;28;20046;-71
2022/02/24 09:48:04;;;;;;;5.45;2.03;;;10.90;55.30;;;;;;4992111;28;20128;-72
2022/02/24 09:50:33;;;;;;;5.32;2.35;;;10.90;54.80;;;;;;4991051;28;20482;-71
2022/02/24 09:53:00;;;;;;;6.03;2.00;;;10.90;55.20;;;;;;4993780;28;20065;-71
2022/02/24 09:55:27;;;;;;;4.40;2.05;;;10.90;54.80;;;;;;4995731;28;20049;-73
2022/02/24 09:57:54;;;;;;;4.38;2.30;;;11.10;55.30;;;;;;4970276;28;20277;-72
2022/02/24 10:00:21;;;;;;;3.97;1.52;;;11.30;54.60;;;;;;4974020;28;20053;-72
2022/02/24 10:02:49;;;;;;;5.15;2.33;;;11.50;54.60;;;;;;4990494;28;20054;-72
2022/02/24 10:05:16;;;;;;;5.13;1.33;;;11.60;53.30;;;;;;4991437;28;20449;-73
2022/02/24 10:07:46;;;;;;;5.10;1.17;;;11.60;53.10;;;;;;4993848;28;20409;-72
2022/02/24 10:10:31;;;;;;;3.97;1.13;;;11.50;53.00;;;;;;4994561;28;20103;-72
2022/02/24 10:13:13;;;;;;;5.53;1.48;;;11.60;52.30;;;;;;4991848;28;20138;-72
2022/02/24 10:15:52;;;;;;;1.98;0.63;;;11.70;52.10;;;;;;4987504;28;20053;-72
2022/02/24 10:18:20;;;;;;;3.75;0.75;;;12.00;50.60;;;;;;5006267;28;20056;-72
2022/02/24 10:21:00;;;;;;;4.35;1.10;;;12.10;50.00;;;;;;4990939;28;20512;-73
2022/02/24 10:23:38;;;;;;;7.40;0.95;;;12.20;50.80;;;;;;4992551;28;20046;-72
2022/02/24 10:26:13;;;;;;;2.97;1.13;;;12.30;49.20;;;;;;5006045;28;20066;-71
2022/02/24 10:28:42;;;;;;;2.15;1.15;;;12.10;49.30;;;;;;5005641;28;20433;-71
2022/02/24 10:31:12;;;;;;;7.10;0.73;;;12.10;49.30;;;;;;4989850;28;20454;-72
2022/02/24 10:33:47;;;;;;;3.10;0.82;;;12.10;48.70;;;;;;4990758;28;20046;-72
2022/02/24 10:36:22;;;;;;;3.17;0.40;;;12.20;48.70;;;;;;4989987;28;20163;-72
2022/02/24 10:39:11;;;;;;;4.68;0.63;;;12.40;48.30;;;;;;5007919;28;20790;-72
2022/02/24 10:41:49;;;;;;;2.83;0.52;;;12.20;47.10;;;;;;4973562;28;20046;-72
2022/02/24 10:44:25;;;;;;;5.53;1.15;;;12.00;49.00;;;;;;4990482;28;20045;-72
2022/02/24 10:47:07;;;;;;;4.07;0.50;;;12.30;47.70;;;;;;4990133;28;20049;-72
2022/02/24 10:49:43;;;;;;;3.20;0.60;;;12.50;47.50;;;;;;4990031;28;20054;-72
2022/02/24 10:52:13;;;;;;;3.75;0.40;;;12.40;47.70;;;;;;4986919;28;20049;-71
2022/02/24 10:54:42;;;;;;;3.38;1.15;;;12.40;47.10;;;;;;5004956;28;20164;-72
2022/02/24 10:57:24;;;;;;;3.90;0.55;;;12.50;47.30;;;;;;4976357;28;20042;-73
2022/02/24 10:59:52;;;;;;;3.45;1.00;;;12.50;46.80;;;;;;4974605;28;20625;-72
2022/02/24 11:02:21;;;;;;;3.17;0.80;;;12.40;47.20;;;;;;5004481;28;20053;-72
2022/02/24 11:04:49;;;;;;;2.05;0.77;;;12.60;47.80;;;;;;4991257;28;20048;-72
2022/02/24 11:07:16;;;;;;;4.43;0.95;;;12.70;47.60;;;;;;4989072;28;20042;-72
2022/02/24 11:09:45;;;;;;;3.30;1.30;;;12.90;46.60;;;;;;4990081;28;20189;-70
2022/02/24 11:12:14;;;;;;;3.78;0.52;;;13.00;46.90;;;;;;4988187;28;20070;-71
2022/02/24 11:14:46;;;;;;;5.18;0.70;;;13.30;46.50;;;;;;4970327;28;20038;-70
2022/02/24 11:17:14;;;;;;;9.30;2.38;;;13.10;45.20;;;;;;4988603;28;20048;-71
2022/02/24 11:19:44;;;;;;;4.22;1.40;;;13.30;45.80;;;;;;4987834;28;20882;-71
2022/02/24 11:22:11;;;;;;;4.05;0.88;;;13.40;45.00;;;;;;4969985;28;20703;-71
2022/02/24 11:24:39;;;;;;;2.08;0.50;;;13.20;45.40;;;;;;4988408;28;20057;-70
2022/02/24 11:27:19;;;;;;;6.13;1.27;;;13.30;45.00;;;;;;5006018;28;20124;-71
2022/02/24 11:30:03;;;;;;;2.58;0.40;;;13.60;44.90;;;;;;4989888;28;20052;-71
2022/02/24 11:32:31;;;;;;;3.55;0.60;;;14.00;43.90;;;;;;4990345;28;20386;-70
2022/02/24 11:35:17;;;;;;;2.42;0.50;;;14.10;44.50;;;;;;4987601;28;20046;-71
2022/02/24 11:37:55;;;;;;;3.22;0.60;;;14.00;44.00;;;;;;5005011;28;20055;-72
2022/02/24 11:40:27;;;;;;;2.10;0.35;;;14.00;44.50;;;;;;4989934;28;20109;-72
2022/02/24 11:43:06;;;;;;;3.08;0.38;;;14.30;43.60;;;;;;4988999;28;20073;-72
2022/02/24 11:45:38;;;;;;;1.73;0.32;;;14.50;43.00;;;;;;5003636;28;20105;-72
2022/02/24 11:48:11;;;;;;;2.97;0.47;;;14.60;42.70;;;;;;4989965;28;20038;-72
2022/02/24 11:50:42;;;;;;;3.30;0.57;;;14.60;42.40;;;;;;4985801;28;20150;-71
2022/02/24 11:53:40;;;;;;;4.45;0.40;;;14.60;43.00;;;;;;4985855;28;20042;-72
2022/02/24 11:56:19;;;;;;;3.40;0.60;;;14.50;42.60;;;;;;5010731;28;20261;-72
2022/02/24 11:58:51;;;;;;;2.30;0.30;;;14.50;42.00;;;;;;4989842;28;20041;-75
2022/02/24 12:01:18;;;;;;;1.98;0.57;;;14.60;42.10;;;;;;4986341;28;20064;-72
2022/02/24 12:03:48;;;;;;;4.10;0.73;;;14.60;41.90;;;;;;4987439;28;20050;-72
2022/02/24 12:06:20;;;;;;;2.83;0.82;;;14.70;42.70;;;;;;4987138;28;20045;-72
2022/02/24 12:09:08;;;;;;;4.43;0.35;;;14.70;42.00;;;;;;4987045;28;20045;-71
2022/02/24 12:11:44;;;;;;;3.50;0.60;;;14.50;41.30;;;;;;4987375;28;20053;-72
2022/02/24 12:14:20;;;;;;;2.83;0.50;;;14.30;42.80;;;;;;4967081;28;20057;-71
2022/02/24 12:17:05;;;;;;;2.05;0.70;;;14.20;42.30;;;;;;4986822;28;20041;-72
2022/02/24 12:19:41;;;;;;;1.42;0.30;;;14.30;42.40;;;;;;4986949;28;20041;-73
2022/02/24 12:22:16;;;;;;;1.73;0.22;;;14.30;41.00;;;;;;4981077;28;20060;-71
2022/02/24 12:24:45;;;;;;;3.25;0.40;;;14.30;41.40;;;;;;4980716;28;20049;-72
2022/02/24 12:27:48;;;;;;;1.85;0.38;;;14.50;41.20;;;;;;4967619;28;20061;-71
2022/02/24 12:30:20;;;;;;;3.20;0.47;;;14.80;42.00;;;;;;5003518;28;20056;-72
2022/02/24 12:32:48;;;;;;;3.00;0.47;;;15.10;40.30;;;;;;5001306;28;20484;-71
2022/02/24 12:35:18;;;;;;;3.17;0.40;;;15.00;40.20;;;;;;4983038;28;20619;-72
2022/02/24 12:37:47;;;;;;;4.05;0.68;;;15.00;40.00;;;;;;4985738;28;20942;-72
2022/02/24 12:40:33;;;;;;;3.40;0.80;;;15.00;40.60;;;;;;4982764;28;20798;-71
2022/02/24 12:43:02;;;;;;;4.30;0.73;;;15.00;40.90;;;;;;4979694;28;20401;-72
2022/02/24 12:45:32;;;;;;;1.63;0.50;;;14.60;41.20;;;;;;4986617;28;20144;-71
2022/02/24 12:48:08;;;;;;;3.42;0.40;;;14.30;41.60;;;;;;5004406;28;20114;-72
2022/02/24 12:50:43;;;;;;;3.20;0.30;;;14.30;41.00;;;;;;4987101;28;20065;-71
2022/02/24 12:53:11;;;;;;;2.88;0.32;;;14.00;41.60;;;;;;5001566;28;20050;-72
2022/02/24 12:55:40;;;;;;;1.70;0.43;;;14.10;40.80;;;;;;4985506;28;20117;-72